Terminal Aerodrome Forecast
Issued by NWS Detroit/Pontiac, MI

Home | Current Version | Previous Version | Text Only | Print | Product List | Glossary On
Versions: 1 2 3 4 5 6 7 8 9 10 11 12 13 14 15 16 17 18
000
FTUS43 KDTX 060031 AAA
TAFFNT
TAF AMD
KFNT 060031Z 0601/0624 VRB04KT P6SM SCT020
     FM060800 11006KT 4SM BR BKN007
     FM061400 11010KT P6SM BKN015 OVC100
     FM062100 13008KT 4SM -SHRA BR BKN012=

USA.gov is the U.S. government's official web portal to all federal, state and local government web resources and services.